Date,TemperatureHighF,TemperatureAvgF,TemperatureLowF,DewpointHighF,DewpointAvgF,DewpointLowF,HumidityHigh,HumidityAvg,HumidityLow,PressureMaxIn,PressureMinIn,WindSpeedMaxMPH,WindSpeedAvgMPH,GustSpeedMaxMPH,PrecipitationSumIn
2013-1-1,44.1,31.7,25.5,35.3,25.8,22.6,98,80,50,30.09,30.00,6,1,6,0.00
2013-1-2,44.6,31.2,23.0,34.5,23.9,20.5,98,76,48,30.00,29.85,9,2,9,0.00
2013-1-3,38.7,31.2,22.8,33.3,26.0,21.2,98,82,65,29.91,29.80,6,1,6,0.00
2013-1-4,50.5,39.0,32.7,45.2,35.9,29.9,98,89,76,30.00,29.83,6,1,6,0.00
2013-1-5,40.1,36.7,34.7,35.7,31.5,28.2,97,82,71,29.88,29.83,6,1,6,0.00
2013-1-6,45.3,39.7,36.1,44.5,39.0,35.6,98,97,93,29.91,29.74,11,1,11,0.12
2013-1-7,52.3,48.0,44.6,51.0,47.0,43.7,98,96,91,29.88,29.65,16,5,16,0.24
2013-1-8,56.3,51.3,45.3,50.0,47.8,44.8,98,88,77,29.88,29.59,19,6,19,0.04
2013-1-9,51.1,42.7,33.3,46.9,40.0,32.8,98,90,73,29.65,29.38,13,3,13,0.20
2013-1-10,45.0,36.6,32.2,40.0,35.2,31.7,98,95,75,29.77,29.65,7,2,7,0.04
2013-1-11,42.8,31.4,25.9,34.6,28.9,24.9,98,91,59,29.97,29.77,7,1,7,0.00
2013-1-12,37.6,28.1,24.1,34.0,27.1,23.4,98,96,82,30.06,29.94,5,1,5,0.00
2013-1-13,30.2,28.9,27.7,28.1,27.0,25.3,98,93,87,30.15,30.06,5,1,5,0.00
2013-1-14,34.9,31.1,27.9,32.6,28.6,25.5,98,91,82,30.21,30.15,5,1,5,0.00
2013-1-15,40.1,35.5,32.4,38.1,34.1,31.9,98,95,86,30.30,30.21,6,1,6,0.00
2013-1-16,35.6,34.4,33.1,34.7,33.7,32.6,98,97,95,30.30,30.15,6,1,6,0.00
2013-1-17,44.1,34.0,29.3,36.1,31.7,28.2,98,92,69,30.15,29.97,6,1,6,0.00
2013-1-18,32.9,29.8,27.1,32.4,29.3,26.7,98,98,98,30.00,29.94,4,0,4,0.00
2013-1-19,34.0,30.8,28.6,33.5,30.3,28.1,98,98,97,30.03,29.94,4,0,4,0.00
2013-1-20,37.0,30.8,28.4,33.8,29.9,27.9,98,97,85,30.03,29.91,5,1,5,0.00
2013-1-21,34.5,29.6,27.3,30.7,28.4,26.8,98,95,83,29.97,29.83,5,1,5,0.00
2013-1-22,43.5,30.3,26.2,35.1,28.4,25.8,98,93,70,29.83,29.62,6,1,6,0.00
2013-1-23,36.7,33.4,30.4,34.6,32.3,29.3,98,96,77,29.88,29.56,5,0,5,0.20
2013-1-24,39.2,36.5,33.4,38.7,36.0,32.9,98,98,98,29.88,29.77,5,1,5,0.31
2013-1-25,55.2,44.1,36.1,53.6,43.4,35.6,98,97,91,29.80,29.65,6,0,6,0.16
2013-1-26,48.7,42.2,38.7,43.3,40.5,38.0,98,94,72,29.77,29.62,10,3,10,0.16
2013-1-27,44.6,40.5,37.0,42.3,39.6,36.5,98,97,85,29.83,29.74,9,3,9,0.16
2013-1-28,44.6,42.0,39.2,43.4,41.3,38.7,98,97,91,29.88,29.77,12,4,12,0.24
2013-1-29,48.4,45.3,42.8,46.9,44.5,42.3,98,97,92,30.15,29.88,10,4,10,0.08
2013-1-30,49.6,46.6,43.3,48.2,45.2,42.7,98,95,87,30.12,30.09,14,6,14,0.04
2013-1-31,56.5,48.8,43.5,50.5,44.9,42.8,98,87,64,30.12,30.00,5,1,5,0.00
2013-2-1,56.3,46.0,36.0,49.4,42.5,35.3,98,89,62,30.03,29.91,8,2,8,0.00
2013-2-2,52.7,38.6,30.6,43.7,36.1,30.1,98,92,69,29.97,29.91,5,1,5,0.00
2013-2-3,49.6,42.3,33.8,46.6,40.9,33.3,98,95,81,30.00,29.88,5,1,5,0.00
2013-2-4,54.0,44.5,38.5,47.3,41.5,38.0,98,90,63,29.91,29.62,5,1,5,0.00
2013-2-5,52.7,46.5,43.2,47.3,43.8,40.6,98,91,74,29.74,29.59,13,4,13,0.33
2013-2-6,52.7,47.0,42.4,43.2,41.2,39.0,98,81,60,29.77,29.53,13,4,13,0.08
2013-2-7,53.6,41.9,34.7,41.0,37.5,32.6,98,86,49,29.80,29.59,9,2,9,0.04
2013-2-8,48.7,37.6,32.2,40.9,35.2,31.7,98,91,63,29.94,29.80,6,1,6,0.00
2013-2-9,45.9,39.6,32.5,43.3,38.8,32.0,98,97,85,29.97,29.91,5,1,5,0.00
2013-2-10,46.9,42.8,38.1,44.3,39.6,36.5,98,89,72,30.00,29.94,5,1,5,0.00
2013-2-11,48.4,44.2,40.5,43.4,39.1,36.0,96,83,69,30.06,29.97,8,2,8,0.00
2013-2-12,60.4,49.8,45.3,47.5,45.2,42.8,98,85,55,30.12,30.03,12,4,12,0.00
2013-2-13,56.7,48.9,43.3,48.0,44.0,38.3,97,84,65,30.15,30.09,8,3,8,0.00
2013-2-14,58.5,47.5,39.4,45.9,41.7,38.1,96,82,52,30.21,30.15,6,1,6,0.00
2013-2-15,66.0,48.3,36.9,47.1,42.3,36.3,98,82,46,30.15,29.85,8,2,8,0.00
2013-2-16,58.8,44.2,36.3,46.4,39.7,34.6,98,86,49,29.94,29.88,10,2,10,0.00
2013-2-17,52.0,40.7,34.0,42.6,34.1,29.4,98,80,47,29.97,29.77,6,1,6,0.00
2013-2-18,51.3,40.7,33.8,37.9,34.5,32.1,98,80,52,29.77,29.41,10,2,10,0.00
2013-2-19,57.6,43.5,34.9,40.5,36.4,31.9,98,79,41,29.68,29.35,8,2,8,0.04
2013-2-20,50.4,40.7,32.4,43.4,37.2,31.6,98,89,55,29.77,29.68,10,2,10,0.04
2013-2-21,46.4,42.2,37.6,42.3,39.9,36.3,98,92,75,29.85,29.77,13,5,13,0.04
2013-2-22,46.8,43.7,37.9,45.8,41.2,34.9,98,91,81,29.83,29.56,19,6,19,0.43
2013-2-23,54.5,41.9,35.4,42.1,35.6,30.7,98,80,46,30.09,29.74,10,3,10,0.24
2013-2-24,55.9,43.9,34.3,37.9,34.5,30.4,97,72,41,30.09,29.74,13,3,13,0.00
2013-2-25,55.0,43.7,35.6,42.7,37.0,30.3,97,79,44,30.06,29.68,15,4,15,0.12
2013-2-26,54.9,43.0,34.9,38.9,35.8,32.9,98,78,47,30.06,29.91,10,2,10,0.00
2013-2-27,54.5,48.0,42.8,45.9,39.5,36.6,98,73,53,29.97,29.88,9,2,9,0.00
2013-2-28,58.8,52.9,46.2,54.6,50.8,45.7,98,93,77,30.09,29.85,13,5,13,0.04
2013-3-1,62.6,55.3,49.8,51.9,50.3,46.4,95,84,63,30.12,29.97,8,2,8,0.00
2013-3-2,56.5,50.1,38.8,50.0,46.2,35.4,98,87,71,29.97,29.83,7,2,7,0.00
2013-3-3,55.4,41.3,30.6,42.7,33.1,28.1,98,75,39,30.00,29.91,7,1,7,0.00
2013-3-4,64.8,43.4,33.3,36.0,32.5,29.4,98,71,33,29.91,29.59,8,2,8,0.00
2013-3-5,52.2,42.5,33.8,45.7,40.0,30.7,98,91,70,29.59,29.32,7,2,7,0.20
2013-3-6,46.0,42.7,40.5,44.3,41.1,38.5,98,94,82,29.62,29.20,12,3,12,0.31
2013-3-7,60.1,43.6,31.6,41.9,34.6,29.4,98,75,37,29.74,29.62,7,1,7,0.00
2013-3-8,63.0,43.5,30.7,42.0,33.6,29.7,98,73,36,29.88,29.68,7,1,7,0.00
2013-3-9,65.5,43.7,29.1,42.6,34.7,27.8,98,74,37,30.15,29.85,6,1,6,0.00
2013-3-10,51.8,43.5,33.4,44.9,38.9,30.9,96,85,65,30.15,30.09,6,0,6,0.00
2013-3-11,60.8,49.8,42.1,51.9,47.1,41.0,98,91,69,30.09,29.91,6,0,6,0.00
2013-3-12,65.5,52.8,44.2,52.0,47.6,43.7,98,84,55,29.91,29.83,8,2,8,0.00
2013-3-13,66.9,54.9,47.8,50.3,47.4,44.4,92,77,52,29.88,29.77,7,1,7,0.00
2013-3-14,61.0,52.9,45.3,51.1,45.8,40.3,98,79,50,29.88,29.71,9,2,9,0.00
2013-3-15,68.9,56.7,48.9,51.4,47.5,43.1,94,73,44,29.88,29.83,8,2,8,0.00
2013-3-16,51.6,47.2,39.7,49.3,44.1,36.3,98,89,74,29.85,29.68,13,3,13,0.31
2013-3-17,54.7,43.8,37.0,38.4,34.6,30.5,93,72,47,29.97,29.83,10,3,10,0.00
2013-3-18,59.9,43.6,30.6,39.4,33.3,29.3,98,70,38,29.94,29.80,7,1,7,0.00
2013-3-19,49.8,43.7,36.9,45.7,39.4,34.2,98,85,61,29.80,29.35,6,1,6,0.61
2013-3-20,55.6,49.9,46.2,52.3,44.0,35.7,98,81,60,29.68,29.24,17,6,17,0.37
2013-3-21,54.5,44.2,35.6,43.0,36.2,30.7,98,75,44,29.97,29.68,10,3,10,0.08
2013-3-22,53.8,39.6,31.3,38.7,34.1,27.5,98,83,42,30.06,29.97,7,1,7,0.08
2013-3-23,56.1,40.7,33.3,40.3,32.3,24.4,98,76,38,30.06,29.91,6,1,6,0.00
2013-3-24,60.6,45.0,34.7,37.5,33.3,30.2,93,67,37,29.91,29.74,7,2,7,0.00
2013-3-25,65.8,48.5,36.0,42.4,35.8,30.7,91,66,34,29.74,29.56,6,1,6,0.00
2013-3-26,56.1,47.1,38.5,47.7,43.4,36.1,98,88,70,29.71,29.62,5,0,5,0.04
2013-3-27,71.8,52.6,39.4,50.4,45.1,38.9,98,80,40,29.68,29.56,7,1,7,0.00
2013-3-28,71.6,55.1,42.8,51.4,46.0,40.3,98,76,35,29.80,29.65,6,1,6,0.04
2013-3-29,74.1,57.4,47.5,53.2,48.2,44.4,98,75,41,29.85,29.80,6,1,6,0.00
2013-3-30,79.9,61.0,44.2,50.0,45.7,42.3,97,62,31,29.85,29.62,9,3,9,0.00
2013-3-31,77.2,61.5,46.0,53.9,48.1,42.1,95,64,41,29.68,29.59,10,2,10,0.00
2013-4-1,71.4,58.4,51.6,52.5,49.4,47.2,89,73,49,29.85,29.68,10,2,10,0.00
2013-4-2,72.3,56.8,47.7,50.7,47.9,44.9,91,74,43,29.88,29.80,5,1,5,0.00
2013-4-3,66.4,54.3,41.0,53.4,48.2,40.5,98,82,55,29.85,29.59,6,1,6,0.00
2013-4-4,63.1,57.1,53.2,58.5,52.5,47.1,97,85,65,29.59,29.38,13,3,13,0.12
2013-4-5,59.9,54.5,51.6,54.3,50.4,46.9,97,86,65,29.62,29.50,12,4,12,0.16
2013-4-6,58.1,51.1,46.6,52.9,47.5,42.1,98,88,63,29.68,29.38,14,4,14,0.84
2013-4-7,54.1,48.9,42.8,50.3,43.5,37.5,98,82,68,29.65,29.26,24,6,24,0.33
2013-4-8,61.7,48.4,38.5,45.2,41.5,36.6,98,79,48,29.97,29.65,7,2,7,0.00
2013-4-9,60.3,49.6,38.1,48.0,42.9,37.1,98,80,54,30.03,29.91,5,1,5,0.00
2013-4-10,68.2,55.2,47.8,55.4,45.5,38.6,95,71,44,30.00,29.80,15,4,15,0.00
2013-4-11,65.7,49.0,37.0,45.4,39.5,35.4,98,72,40,30.03,29.85,7,1,7,0.00
2013-4-12,57.4,46.9,35.4,46.7,39.7,33.7,96,77,54,29.85,29.53,12,2,12,0.00
2013-4-13,58.1,46.6,38.8,41.2,36.0,30.8,91,68,41,29.77,29.59,13,4,13,0.00
2013-4-14,54.9,43.6,38.8,47.9,40.1,34.7,98,88,64,29.77,29.62,7,2,7,0.48
2013-4-15,62.8,47.8,37.4,44.9,38.3,30.3,98,74,35,29.83,29.62,8,1,8,0.04
2013-4-16,65.3,49.8,36.1,44.8,38.6,31.8,98,70,34,30.06,29.83,8,1,8,0.00
2013-4-17,66.2,48.7,34.0,45.0,38.3,32.4,97,70,38,30.15,30.06,8,1,8,0.00
2013-4-18,67.1,54.7,45.5,48.6,43.0,38.7,90,67,42,30.15,30.00,6,1,6,0.00
2013-4-19,62.6,53.3,49.5,55.2,49.0,45.5,98,86,62,30.00,29.83,12,4,12,0.35
2013-4-20,65.8,54.0,46.8,47.1,43.6,39.6,92,70,43,30.00,29.91,7,2,7,0.00
2013-4-21,60.1,52.1,46.6,47.9,43.8,39.8,88,74,55,29.97,29.91,9,2,9,0.00
2013-4-22,70.7,53.3,37.8,43.2,35.7,26.5,98,58,26,30.06,29.97,12,4,12,0.00
2013-4-23,74.5,55.1,38.5,40.1,33.4,27.0,75,48,23,30.03,29.80,9,2,9,0.00
2013-4-24,80.4,59.8,41.4,41.2,34.5,29.6,70,42,22,29.91,29.68,10,3,10,0.00
2013-4-25,84.9,61.1,39.4,48.3,41.1,32.1,87,52,27,29.83,29.68,7,1,7,0.00
2013-4-26,87.1,62.3,43.0,51.0,43.8,36.7,95,57,22,29.91,29.83,7,1,7,0.00
2013-4-27,79.9,60.7,41.5,52.0,41.7,35.9,95,56,24,29.94,29.85,9,2,9,0.00
2013-4-28,75.7,60.1,52.3,51.0,44.5,36.2,84,59,31,29.94,29.77,13,3,13,0.00
2013-4-29,70.7,55.3,37.6,50.6,38.8,27.6,93,57,33,29.91,29.74,12,4,12,0.00
2013-4-30,65.8,47.3,34.0,41.8,33.2,28.1,93,62,36,30.09,29.91,7,1,7,0.00
2013-5-1,73.8,54.4,34.3,41.4,34.8,30.1,89,53,28,30.15,30.09,9,3,9,0.00
2013-5-2,84.9,65.0,42.8,42.8,35.8,28.4,67,36,21,30.09,29.91,9,3,9,0.00
2013-5-3,85.8,63.5,42.4,48.5,39.6,33.6,77,45,23,29.97,29.80,10,2,10,0.00
2013-5-4,87.4,67.8,48.9,47.4,39.2,31.4,70,40,19,29.80,29.56,20,4,20,0.00
2013-5-5,91.8,71.2,52.9,44.5,39.2,34.3,57,34,18,29.56,29.38,14,4,14,0.00
2013-5-6,88.3,67.9,52.3,53.6,48.0,41.4,76,52,29,29.59,29.44,8,3,8,0.00
2013-5-7,82.6,62.4,45.3,53.1,48.3,43.4,95,64,34,29.71,29.59,8,2,8,0.00
2013-5-8,73.4,56.6,44.2,54.9,48.9,43.2,98,77,46,29.83,29.71,6,1,6,0.00
2013-5-9,85.8,63.1,44.8,57.6,50.2,44.3,98,69,31,29.85,29.74,8,2,8,0.00
2013-5-10,90.9,68.9,48.7,58.9,52.6,47.7,97,62,28,29.85,29.77,7,1,7,0.00
2013-5-11,91.4,69.8,51.4,60.4,54.2,47.7,91,61,29,29.85,29.68,6,1,6,0.00
2013-5-12,79.7,64.7,57.7,59.6,56.3,52.6,96,76,47,29.80,29.74,7,1,7,0.04
2013-5-13,73.4,60.0,48.7,57.7,52.6,45.0,98,79,43,29.88,29.74,13,3,13,0.00
2013-5-14,75.6,57.5,41.5,50.7,41.6,32.0,98,62,26,29.88,29.77,7,1,7,0.00
2013-5-15,64.8,54.3,46.9,54.1,47.6,41.6,91,79,60,29.80,29.68,8,1,8,0.08
2013-5-16,66.7,57.4,52.3,58.0,53.3,49.5,98,87,57,29.71,29.62,8,1,8,0.08
2013-5-17,70.5,56.7,47.8,52.5,47.9,42.7,98,76,42,29.80,29.68,8,2,8,0.00
2013-5-18,61.5,54.1,48.0,54.1,50.5,46.3,98,88,62,29.94,29.77,7,1,7,0.17
2013-5-19,70.9,58.0,48.0,54.7,49.0,44.2,98,75,45,30.06,29.94,7,2,7,0.04
2013-5-20,80.1,58.4,41.5,52.4,44.7,36.6,98,66,30,30.00,29.59,6,2,6,0.00
2013-5-21,61.3,50.0,43.3,48.9,45.3,41.3,97,85,58,29.68,29.50,10,3,10,0.31
2013-5-22,49.6,46.0,42.6,48.4,44.5,40.5,98,94,90,29.65,29.59,13,5,13,0.51
2013-5-23,60.1,50.3,45.5,49.8,46.4,41.9,98,88,53,29.68,29.62,11,4,11,0.59
2013-5-24,66.6,53.9,47.8,50.7,48.0,43.7,98,82,48,29.74,29.65,14,4,14,0.08
2013-5-25,74.1,59.3,48.7,53.4,48.3,42.1,97,71,34,29.74,29.59,9,2,9,0.04
2013-5-26,71.6,59.1,53.1,55.8,50.7,45.5,98,76,46,29.71,29.62,10,3,10,0.20
2013-5-27,72.5,57.3,50.7,61.4,51.8,47.3,98,83,56,29.68,29.41,14,3,14,0.74
2013-5-28,71.8,58.8,51.8,52.5,48.5,42.0,94,71,41,29.62,29.44,11,3,11,0.12
2013-5-29,69.6,56.5,50.4,58.2,50.6,44.0,98,82,47,29.74,29.32,16,4,16,0.82
2013-5-30,69.8,57.2,49.6,50.6,46.7,42.3,93,70,43,29.91,29.74,8,2,8,0.00
2013-5-31,74.7,60.6,49.3,52.8,46.1,40.8,97,62,34,30.00,29.88,8,2,8,0.00
2013-6-1,84.4,62.7,45.1,55.6,50.3,44.2,98,68,34,29.91,29.68,6,1,6,0.00
2013-6-2,78.8,63.1,53.2,54.4,50.4,46.1,89,65,40,29.77,29.71,8,1,8,0.00
2013-6-3,80.4,64.5,46.6,53.6,47.8,44.2,98,59,35,29.80,29.71,8,2,8,0.00
2013-6-4,88.9,73.3,47.7,70.9,50.2,45.3,93,46,30,29.77,29.62,7,2,7,0.00
2013-6-5,91.6,72.2,52.9,59.5,52.7,46.7,95,56,24,29.74,29.65,7,2,7,0.00
2013-6-6,89.4,71.5,54.5,59.9,52.6,39.9,92,55,30,29.74,29.65,7,1,7,0.00
2013-6-7,87.8,68.3,49.5,56.6,48.2,40.0,86,52,25,29.83,29.74,8,2,8,0.00
2013-6-8,84.6,66.6,48.2,51.4,46.8,42.4,95,54,26,29.85,29.74,8,2,8,0.00
2013-6-9,80.6,63.8,51.3,52.2,46.5,42.5,86,56,31,29.80,29.65,10,3,10,0.00
2013-6-10,79.7,60.8,43.7,50.1,43.3,39.5,94,56,32,29.71,29.56,7,2,7,0.00
2013-6-11,73.6,59.6,52.2,52.0,45.3,40.6,79,60,40,29.83,29.68,10,2,10,0.00
2013-6-12,69.3,58.8,50.9,51.2,47.3,43.8,90,67,42,29.85,29.80,7,2,7,0.00
2013-6-13,68.7,56.6,49.8,59.3,50.9,45.7,98,82,58,29.97,29.85,12,3,12,0.29
2013-6-14,74.8,59.7,46.6,55.9,48.5,44.5,98,71,42,29.97,29.65,10,2,10,0.00
2013-6-15,86.2,65.5,47.7,58.1,51.1,45.6,98,64,31,29.71,29.59,7,1,7,0.00
2013-6-16,80.2,64.1,49.1,57.5,52.1,47.8,98,68,40,29.80,29.71,6,1,6,0.00
2013-6-17,84.2,65.8,50.2,56.1,50.5,46.1,98,62,30,29.80,29.62,8,2,8,0.00
2013-6-18,77.4,62.9,52.2,56.9,48.9,42.1,92,62,34,29.71,29.62,8,2,8,0.04
2013-6-19,75.7,59.5,47.5,56.0,48.6,44.3,96,70,38,29.77,29.65,8,2,8,0.00
2013-6-20,73.8,60.6,52.9,57.2,50.5,43.7,88,71,47,29.80,29.74,9,2,9,0.08
2013-6-21,80.1,63.5,53.6,54.0,49.8,42.9,91,64,32,29.85,29.80,6,1,6,0.00
2013-6-22,87.1,67.4,49.6,57.3,50.3,43.2,98,60,25,29.80,29.53,5,1,5,0.00
2013-6-23,74.3,64.4,57.9,63.4,58.1,50.9,98,81,60,29.53,29.32,5,1,5,0.20
2013-6-24,70.0,61.5,55.9,61.7,54.9,49.9,98,80,54,29.41,29.32,9,3,9,0.04
2013-6-25,72.3,62.5,55.9,63.7,57.1,51.3,98,84,53,29.56,29.35,12,2,12,0.12
2013-6-26,77.7,65.4,58.8,62.7,57.6,52.6,98,78,46,29.74,29.53,7,2,7,0.17
2013-6-27,88.0,70.7,59.2,64.7,60.4,57.4,98,73,42,29.83,29.68,7,1,7,0.00
2013-6-28,95.5,76.0,58.8,69.1,61.7,56.1,98,66,33,29.83,29.68,6,1,6,0.00
2013-6-29,95.0,75.7,59.5,62.6,59.1,56.3,93,61,29,29.80,29.62,6,1,6,0.00
2013-6-30,100.2,79.0,61.3,67.7,62.1,58.7,95,61,28,29.65,29.50,6,1,6,0.00
2013-7-1,87.4,66.4,62.6,68.6,62.4,44.0,95,88,50,29.68,29.59,4,0,4,0.00
2013-7-2,96.8,77.0,61.9,65.6,59.9,51.2,93,59,32,29.77,29.68,6,2,6,0.00
2013-7-3,91.4,72.6,57.2,54.8,48.1,40.0,80,46,19,29.83,29.68,7,2,7,0.00
2013-7-4,82.4,66.4,52.5,53.0,49.3,42.5,83,56,34,29.83,29.71,8,3,8,0.00
2013-7-5,81.1,64.7,52.3,56.2,51.4,47.4,87,65,36,29.77,29.62,8,1,8,0.00
2013-7-6,81.0,64.3,49.6,57.5,52.9,47.9,96,69,41,29.65,29.53,7,2,7,0.00
2013-7-7,85.8,67.7,51.6,60.4,55.4,51.0,98,68,39,29.65,29.56,7,2,7,0.00
2013-7-8,86.9,68.4,52.3,56.5,53.0,50.1,94,62,32,29.77,29.65,7,2,7,0.00
2013-7-9,93.6,74.0,54.7,61.2,56.3,51.6,96,59,29,29.74,29.62,8,2,8,0.00
2013-7-10,89.2,71.0,56.3,57.1,51.0,43.5,82,51,32,29.77,29.59,8,3,8,0.00
2013-7-11,81.3,65.0,50.0,50.3,46.3,44.0,85,54,31,29.77,29.62,9,3,9,0.00
2013-7-12,82.8,64.6,47.3,52.4,46.8,43.7,91,56,31,29.77,29.68,9,2,9,0.00
2013-7-13,86.4,66.7,46.9,51.8,45.0,38.8,90,52,22,29.85,29.71,10,3,10,0.00
2013-7-14,94.1,80.2,58.6,53.5,46.8,38.6,50,32,22,29.74,29.62,8,3,8,0.00
2013-7-15,90.3,70.5,51.1,52.4,47.3,37.8,83,47,27,29.71,29.47,8,2,8,0.00
2013-7-16,95.9,70.8,56.5,60.7,53.3,45.2,81,57,27,29.68,29.44,8,2,8,0.00
2013-7-17,85.1,68.0,58.5,57.0,54.2,49.6,84,64,35,29.85,29.68,7,2,7,0.00
2013-7-18,88.9,68.8,52.2,57.8,53.3,46.7,97,63,27,29.88,29.74,8,2,8,0.00
2013-7-19,89.4,68.4,52.5,60.4,55.8,51.0,96,68,35,29.83,29.68,7,2,7,0.00
2013-7-20,85.1,66.3,52.3,59.9,55.4,51.0,96,71,40,29.77,29.62,7,2,7,0.00
2013-7-21,87.6,68.3,51.4,59.2,54.5,48.3,96,65,35,29.68,29.56,8,2,8,0.00
2013-7-22,88.7,70.0,56.1,58.7,54.9,50.3,95,63,29,29.74,29.62,7,2,7,0.00
2013-7-23,95.0,73.3,54.3,61.5,56.8,52.9,97,62,30,29.74,29.62,8,2,8,0.00
2013-7-24,97.2,75.6,56.7,61.3,55.1,49.8,94,55,26,29.74,29.62,7,2,7,0.00
2013-7-25,94.5,75.0,56.7,56.7,51.8,45.0,90,50,20,29.77,29.68,9,2,9,0.00
2013-7-26,97.3,72.7,52.3,56.5,48.1,37.4,85,47,20,29.83,29.74,8,2,8,0.00
2013-7-27,89.6,69.2,52.9,52.3,46.1,39.7,81,46,27,29.85,29.68,7,2,7,0.00
2013-7-28,84.2,64.4,47.1,55.6,49.0,43.8,95,61,33,29.77,29.65,7,2,7,0.00
2013-7-29,86.9,67.3,56.3,55.1,51.0,46.1,80,59,29,29.71,29.62,7,1,7,0.00
2013-7-30,87.3,67.7,50.2,58.8,53.3,48.8,97,65,32,29.83,29.71,7,1,7,0.00
2013-7-31,85.1,65.9,53.6,60.9,56.0,52.2,97,73,42,29.80,29.71,7,1,7,0.00
2013-8-1,69.4,63.0,59.2,56.3,54.5,53.2,83,74,61,29.80,29.74,7,2,7,0.00
2013-8-2,79.9,65.6,58.1,57.5,53.6,49.3,91,68,40,29.83,29.77,6,1,6,0.00
2013-8-3,86.2,69.0,54.3,59.5,56.1,52.6,96,67,37,29.80,29.65,8,2,8,0.00
2013-8-4,94.6,73.8,55.2,62.6,57.1,52.0,97,62,28,29.71,29.56,7,1,7,0.00
2013-8-5,94.8,75.1,57.4,64.4,57.4,50.4,96,60,27,29.71,29.56,7,1,7,0.00
2013-8-6,99.5,74.5,52.0,56.8,47.8,40.5,82,45,16,29.68,29.56,8,1,8,0.00
2013-8-7,93.6,71.3,54.9,57.1,52.2,48.8,89,55,28,29.71,29.62,7,2,7,0.00
2013-8-8,87.4,70.2,57.0,59.9,55.7,52.4,87,63,37,29.74,29.59,8,2,8,0.00
2013-8-9,87.3,70.8,59.0,63.7,56.2,50.5,90,63,32,29.62,29.53,10,1,10,0.00
2013-8-10,88.3,69.6,58.1,63.1,59.0,54.5,98,72,38,29.74,29.59,7,1,7,0.00
2013-8-11,79.9,65.2,55.8,61.1,56.8,53.5,95,76,47,29.77,29.68,6,1,6,0.00
2013-8-12,80.4,66.7,56.3,60.8,56.4,51.5,94,72,46,29.77,29.68,6,1,6,0.00
2013-8-13,90.3,68.9,50.2,61.8,53.2,49.4,98,64,28,29.80,29.59,6,1,6,0.00
2013-8-14,92.3,69.7,53.8,61.2,54.2,45.7,97,64,22,29.65,29.59,6,1,6,0.00
2013-8-15,82.2,71.0,62.4,67.3,62.8,58.7,96,77,55,29.65,29.62,6,1,6,0.00
2013-8-16,90.7,72.8,62.2,68.1,62.7,50.6,98,74,41,29.74,29.65,5,1,5,0.00
2013-8-17,90.3,70.3,53.6,59.1,55.0,51.5,95,63,32,29.77,29.68,7,1,7,0.00
2013-8-18,91.0,70.8,55.0,62.7,56.1,52.0,98,65,31,29.80,29.71,6,2,6,0.00
2013-8-19,92.8,71.3,55.4,59.5,54.2,49.1,97,60,28,29.80,29.71,7,2,7,0.00
2013-8-20,87.8,67.7,50.0,55.4,49.5,43.8,94,57,24,29.80,29.65,10,2,10,0.00
2013-8-21,94.3,70.9,52.2,55.6,51.2,47.6,89,55,27,29.68,29.50,7,2,7,0.00
2013-8-22,87.3,71.6,55.8,59.7,55.1,51.1,89,59,31,29.59,29.50,6,1,6,0.00
2013-8-23,82.8,65.9,56.7,60.7,56.7,52.9,98,75,40,29.65,29.56,6,2,6,0.04
2013-8-24,81.0,67.1,58.8,61.5,56.0,51.2,95,70,38,29.59,29.53,6,1,6,0.00
2013-8-25,79.0,62.9,54.1,63.5,56.7,51.3,97,81,52,29.62,29.59,6,1,6,0.12
2013-8-26,84.6,67.1,57.9,63.8,56.1,44.7,98,74,30,29.65,29.59,13,2,13,0.04
2013-8-27,88.0,70.6,59.9,62.0,58.4,54.0,97,69,38,29.65,29.47,6,2,6,0.00
2013-8-28,84.6,70.7,59.2,65.6,60.5,56.8,98,72,46,29.59,29.53,5,1,5,0.00
2013-8-29,83.3,70.3,64.2,71.0,63.4,59.4,98,80,50,29.77,29.53,10,2,10,0.31
2013-8-30,88.0,71.4,61.2,67.7,59.6,52.6,98,70,34,29.83,29.71,6,1,6,0.00
2013-8-31,94.3,71.4,55.2,61.1,57.1,53.7,98,66,30,29.74,29.50,7,1,7,0.00
2013-9-1,90.7,70.2,55.0,59.1,53.6,48.8,94,60,28,29.59,29.47,6,1,6,0.00
2013-9-2,86.7,71.2,60.6,61.1,55.2,49.0,89,60,32,29.62,29.56,9,1,9,0.00
2013-9-3,83.7,68.2,59.7,65.2,57.5,51.2,98,73,36,29.68,29.62,5,1,5,0.25
2013-9-4,80.2,67.3,57.4,61.6,57.9,53.4,98,74,45,29.74,29.68,6,1,6,0.00
2013-9-5,67.6,62.7,58.3,64.5,61.0,57.7,98,94,80,29.74,29.65,8,1,8,1.02
2013-9-6,72.9,63.6,58.1,63.7,59.7,57.1,98,88,62,29.83,29.71,10,3,10,0.97
2013-9-7,82.9,66.3,54.0,63.3,57.9,53.4,98,78,42,29.80,29.65,6,1,6,0.00
2013-9-8,87.8,69.5,55.9,63.8,58.1,52.2,98,72,34,29.74,29.65,9,2,9,0.00
2013-9-9,88.3,69.5,56.5,63.6,60.4,55.9,98,76,41,29.71,29.59,7,2,7,0.00
2013-9-10,92.8,73.5,58.3,65.6,60.2,56.3,98,68,33,29.62,29.44,8,2,8,0.00
2013-9-11,99.7,76.0,58.5,64.6,59.3,55.9,95,61,28,29.62,29.47,4,1,4,0.00
2013-9-12,87.3,67.8,55.9,62.9,59.5,55.1,98,77,42,29.71,29.59,4,1,4,0.00
2013-9-13,77.2,64.0,56.1,65.7,60.1,55.6,98,88,63,29.65,29.53,4,1,4,0.00
2013-9-14,83.7,66.9,59.0,64.4,61.2,58.2,98,84,49,29.56,29.38,6,1,6,0.00
2013-9-15,70.7,63.0,58.8,61.8,60.0,58.3,98,91,69,29.59,29.41,6,2,6,0.00
2013-9-16,76.6,64.2,59.2,59.2,57.0,53.1,96,79,48,29.68,29.59,9,2,9,0.00
2013-9-17,71.8,61.3,54.5,59.0,53.6,43.9,98,78,42,29.71,29.56,7,1,7,0.00
2013-9-18,78.3,61.6,49.8,58.3,51.0,43.7,98,73,33,29.77,29.68,6,2,6,0.00
2013-9-19,84.4,59.5,43.7,55.5,48.8,43.2,98,73,31,29.68,29.47,5,1,5,0.00
2013-9-20,79.2,59.1,46.9,58.6,52.6,46.4,98,82,41,29.47,29.32,10,2,10,0.00
2013-9-21,73.8,60.0,53.1,61.2,55.4,50.0,98,86,46,29.47,29.35,10,1,10,0.04
2013-9-22,63.5,57.8,55.6,58.9,55.3,49.8,98,92,63,29.56,29.35,19,4,19,0.48
2013-9-23,65.1,57.5,53.8,60.8,56.0,53.2,98,95,71,29.68,29.56,8,2,8,0.83
2013-9-24,64.4,55.3,51.3,57.7,53.2,49.7,98,93,61,29.68,29.53,6,1,6,0.21
2013-9-25,63.9,53.8,47.5,54.0,49.7,44.5,98,87,54,29.71,29.53,6,1,6,0.00
2013-9-26,72.0,53.7,46.8,54.8,49.2,44.6,98,87,44,29.85,29.71,6,1,6,0.12
2013-9-27,58.6,52.2,43.3,55.7,50.2,42.8,98,93,76,29.85,29.59,13,4,13,0.16
2013-9-28,65.8,58.6,52.3,60.0,56.5,51.8,98,93,72,29.59,29.20,20,6,20,1.11
2013-9-29,56.7,54.5,52.5,56.1,53.4,50.6,98,96,91,29.38,29.09,14,5,14,1.31
2013-9-30,62.6,54.5,50.9,53.7,50.2,46.2,98,86,66,29.68,29.32,13,5,13,0.31
2013-10-1,64.8,52.4,43.2,56.7,48.6,42.6,98,89,50,29.85,29.65,7,2,7,0.41
2013-10-2,57.7,47.4,41.5,52.6,45.9,41.0,98,95,76,29.85,29.74,7,1,7,0.12
2013-10-3,64.9,49.1,40.8,51.3,44.8,40.1,98,87,46,30.09,29.85,6,1,6,0.00
2013-10-4,68.2,50.4,40.3,52.2,45.9,39.8,98,87,52,30.12,30.00,6,1,6,0.00
2013-10-5,76.3,52.7,37.6,54.8,45.3,37.1,98,80,36,30.00,29.80,5,1,5,0.00
2013-10-6,79.0,54.9,40.3,56.0,44.9,38.1,98,75,32,29.80,29.65,8,1,8,0.00
2013-10-7,67.6,56.5,52.0,54.6,49.3,44.2,98,79,45,29.83,29.65,7,3,7,0.08
2013-10-8,58.6,52.2,41.9,55.4,48.1,40.8,96,86,69,29.83,29.65,8,2,8,0.04
2013-10-9,62.4,48.6,39.4,46.2,43.1,38.9,98,83,50,29.80,29.65,6,2,6,0.00
2013-10-10,63.9,52.3,43.2,52.4,47.4,42.6,98,85,50,29.77,29.62,7,1,7,0.00
2013-10-11,62.8,51.5,43.0,51.1,45.9,39.8,98,83,47,29.83,29.77,5,1,5,0.00
2013-10-12,65.1,50.1,42.4,55.9,46.5,41.7,98,89,55,29.85,29.74,5,1,5,0.04
2013-10-13,66.4,49.2,40.1,49.1,44.2,39.6,98,85,46,29.97,29.83,7,1,7,0.00
2013-10-14,69.4,52.2,38.7,49.9,42.9,38.1,98,75,38,30.00,29.94,9,2,9,0.00
2013-10-15,70.7,55.0,44.8,44.0,40.2,36.4,81,61,33,29.97,29.80,8,3,8,0.00
2013-10-16,69.1,49.8,37.6,48.9,41.8,36.5,98,77,40,29.83,29.77,6,1,6,0.00
2013-10-17,69.1,51.2,39.4,49.5,44.7,38.9,98,81,44,29.88,29.80,7,1,7,0.00
2013-10-18,73.6,51.9,36.3,56.7,42.4,35.8,98,75,34,29.83,29.74,8,1,8,0.00
2013-10-19,72.7,50.3,36.3,52.8,43.7,35.8,98,81,44,29.83,29.77,4,1,4,0.00
2013-10-20,70.3,49.4,37.2,52.5,44.3,36.7,98,85,45,29.83,29.71,6,1,6,0.00
2013-10-21,76.3,53.4,39.0,54.6,47.7,38.5,98,84,45,29.77,29.62,5,1,5,0.00
2013-10-22,78.6,53.5,38.7,60.1,47.2,38.1,98,83,42,29.71,29.62,6,1,6,0.00
2013-10-23,74.3,52.0,40.3,56.6,47.2,39.8,98,86,46,29.68,29.59,4,0,4,0.00
2013-10-24,66.2,49.3,43.3,54.6,47.1,42.8,98,93,65,29.77,29.65,5,1,5,0.00
2013-10-25,54.3,49.8,41.0,52.8,48.8,40.5,98,96,90,29.94,29.77,5,1,5,0.00
2013-10-26,54.1,51.1,47.3,51.4,49.6,46.5,98,95,84,29.94,29.83,5,1,5,0.00
2013-10-27,59.4,51.1,47.7,55.5,47.4,43.0,98,88,60,29.85,29.53,13,2,13,0.13
2013-10-28,62.6,48.8,36.1,45.1,35.8,27.8,98,65,34,29.59,29.50,13,3,13,0.00
2013-10-29,63.0,42.8,31.8,39.4,31.9,27.8,96,70,33,29.74,29.59,6,1,6,0.00
2013-10-30,60.1,44.0,30.0,46.0,37.0,28.8,98,79,47,29.85,29.74,5,1,5,0.00
2013-10-31,62.1,54.1,46.6,53.3,48.7,44.6,97,82,69,29.94,29.83,10,2,10,0.00
2013-11-1,63.9,52.9,44.8,52.8,49.7,44.3,98,90,66,29.94,29.59,5,1,5,0.04
2013-11-2,58.6,51.0,44.6,52.3,45.7,38.7,98,83,52,29.74,29.41,13,4,13,0.57
2013-11-3,53.1,46.2,40.3,45.9,43.0,39.8,98,89,64,29.83,29.74,8,3,8,0.16
2013-11-4,51.6,47.7,44.8,48.6,46.1,44.3,98,94,79,29.83,29.77,8,3,8,0.08
2013-11-5,54.9,51.9,48.4,53.5,51.0,47.8,98,97,91,29.91,29.77,10,3,10,0.12
2013-11-6,55.2,52.2,49.8,54.7,51.7,49.3,98,98,98,29.94,29.77,5,1,5,0.31
2013-11-7,58.3,52.4,48.2,55.7,49.3,43.8,98,90,67,29.80,29.56,13,4,13,0.33
2013-11-8,54.5,48.6,43.0,50.4,46.5,42.5,98,93,79,29.88,29.80,7,2,7,0.04
2013-11-9,50.4,45.8,40.3,48.0,44.7,39.8,98,96,85,29.80,29.71,4,0,4,0.00
2013-11-10,60.1,47.3,41.2,50.6,45.0,40.5,98,92,69,29.77,29.71,6,1,6,0.00
2013-11-11,57.6,45.2,39.7,51.1,43.8,39.2,98,95,77,29.83,29.68,4,0,4,0.00
2013-11-12,61.3,50.4,45.0,59.4,49.7,44.4,98,97,88,30.09,29.74,4,0,4,0.20
2013-11-13,52.3,48.9,45.5,51.5,48.3,45.0,98,98,94,30.15,29.97,4,0,4,0.00
2013-11-14,53.1,47.3,39.2,52.0,45.6,38.5,98,94,78,29.97,29.77,6,1,6,0.00
2013-11-15,50.7,45.1,40.1,48.2,43.5,39.6,98,94,77,29.80,29.24,15,4,15,0.04
2013-11-16,51.3,48.0,45.1,48.0,42.1,38.7,98,81,65,29.53,29.24,12,3,12,0.04
2013-11-17,56.7,50.6,46.0,47.4,44.5,42.0,95,80,67,29.68,29.53,14,5,14,0.00
2013-11-18,55.4,51.6,49.3,51.2,46.0,41.7,98,82,63,29.65,29.41,14,5,14,0.24
2013-11-19,52.9,48.1,34.5,52.3,45.6,29.9,98,91,66,29.71,29.38,10,3,10,0.72
2013-11-20,47.8,36.8,29.7,32.9,28.8,19.2,98,75,47,30.03,29.71,12,4,12,0.00
2013-11-21,49.5,37.6,30.2,20.8,16.8,10.8,60,44,29,30.21,30.03,13,5,13,0.00
2013-11-22,52.2,36.2,22.8,32.2,18.8,10.5,90,52,31,30.21,30.03,10,2,10,0.00
2013-11-23,55.6,37.7,25.5,32.8,20.9,14.8,85,53,32,30.03,29.83,4,1,4,0.00
2013-11-24,56.3,34.3,25.3,34.3,24.8,18.1,93,70,40,29.94,29.80,0,0,0,0.00
2013-11-25,52.5,33.5,24.6,37.4,27.6,22.6,98,80,48,30.00,29.94,0,0,0,0.00
2013-11-26,46.8,35.6,27.0,37.9,31.9,25.2,98,87,67,29.94,29.74,4,0,4,0.00
2013-11-27,54.7,38.0,30.0,39.9,32.8,28.8,98,83,46,29.74,29.62,6,1,6,0.00
2013-11-28,56.8,36.1,27.5,41.1,31.2,26.8,98,84,51,29.85,29.68,5,0,5,0.00
2013-11-29,44.2,35.0,27.3,40.8,33.8,26.8,98,95,84,30.03,29.85,5,0,5,0.00
2013-11-30,50.7,44.3,39.0,48.8,42.5,38.5,98,94,79,30.06,29.88,14,1,14,0.00
2013-12-1,55.9,53.2,49.5,55.1,51.9,46.3,98,95,85,29.88,29.62,18,8,18,0.82
2013-12-2,51.6,42.5,32.2,51.1,39.3,31.7,98,89,62,29.71,29.59,10,3,10,0.16
2013-12-3,45.7,34.8,26.8,40.5,27.2,15.4,98,77,39,29.94,29.71,15,2,15,0.00
2013-12-4,39.6,29.6,23.0,22.9,16.6,9.8,88,60,39,29.97,29.91,8,2,8,0.00
2013-12-5,32.7,24.0,16.2,22.6,15.6,9.7,90,71,54,29.94,29.83,5,1,5,0.00
2013-12-6,31.6,27.9,25.2,19.4,12.3,7.2,78,52,42,29.83,29.59,12,5,12,0.00
2013-12-7,31.6,23.3,13.5,9.0,5.0,1.3,59,45,37,30.06,29.74,14,4,14,0.00
2013-12-8,32.2,17.4,9.5,13.4,6.0,-2.0,78,61,45,30.24,30.06,5,1,5,0.00
2013-12-9,28.4,21.3,12.0,20.1,14.2,6.8,85,74,63,30.27,30.18,5,1,5,0.00
2013-12-10,38.1,28.2,21.4,27.4,21.7,18.6,89,77,60,30.21,30.06,4,1,4,0.00
2013-12-11,31.1,26.0,20.5,29.7,24.7,18.0,98,95,90,30.06,29.88,6,1,6,0.00
2013-12-12,32.5,28.4,23.0,32.0,27.9,22.5,98,98,98,29.88,29.80,4,2,4,0.04
2013-12-13,48.7,39.5,32.4,48.2,39.0,31.9,98,98,98,30.09,29.80,3,0,3,0.00
2013-12-14,40.5,38.1,36.1,39.9,37.6,35.6,98,98,98,30.12,30.03,5,1,5,0.00
2013-12-15,49.1,39.8,35.1,47.7,39.2,34.6,98,98,92,30.15,30.06,4,0,4,0.00
2013-12-16,43.5,41.0,39.2,43.0,40.4,38.7,98,98,98,30.15,29.91,6,2,6,0.00
2013-12-17,39.2,37.9,36.5,38.5,37.4,36.0,98,98,98,29.91,29.85,5,1,5,0.00
2013-12-18,42.1,37.8,30.0,41.6,37.3,29.5,98,98,98,29.85,29.74,5,0,5,0.04
2013-12-19,37.9,32.4,28.2,36.5,31.4,27.7,98,96,84,29.97,29.80,6,1,6,0.00
2013-12-20,46.0,38.2,32.0,45.5,37.2,31.3,98,96,83,29.91,29.56,16,5,16,0.08
2013-12-21,53.6,48.2,44.8,50.5,45.4,43.5,98,91,72,29.91,29.62,9,3,9,0.00
2013-12-22,56.1,48.0,42.6,50.8,46.7,42.1,98,95,78,30.03,29.88,9,3,9,0.00
2013-12-23,51.6,45.1,33.4,51.1,44.5,32.8,98,98,91,30.21,29.97,14,2,14,0.08
2013-12-24,45.9,37.0,32.2,44.1,36.2,31.5,98,97,82,30.27,30.15,6,2,6,0.00
2013-12-25,40.3,36.5,34.0,38.2,35.7,33.5,98,97,88,30.15,30.06,5,1,5,0.00
2013-12-26,35.8,34.7,33.3,35.3,34.2,32.8,98,98,98,30.06,29.91,4,1,4,0.00
2013-12-27,36.1,34.0,31.3,35.6,33.5,30.8,98,98,98,30.06,29.88,5,1,5,0.00
2013-12-28,44.2,38.3,33.3,42.5,37.1,32.8,98,95,87,30.15,30.06,4,0,4,0.00
2013-12-29,40.8,38.1,33.8,39.8,37.2,33.1,98,97,90,30.12,29.94,5,1,5,0.00
2013-12-30,42.4,38.0,33.1,41.0,37.3,32.6,98,97,90,29.97,29.85,5,1,5,0.04
2013-12-31,48.9,41.1,34.9,47.0,40.2,34.4,98,96,85,30.00,29.88,5,1,5,0.04
2014-1-1,44.2,40.5,35.8,43.7,40.0,35.3,98,98,98,30.03,29.91,4,1,4,0.00
2014-1-2,45.9,40.1,37.2,44.9,39.5,36.7,98,98,94,29.94,29.71,6,1,6,0.08